sensor_id;sensor_type;location;lat;lon;timestamp;pressure;altitude;pressure_sealevel;temperature
68911;BMP180;55953;51.650;-0.522;2023-03-24T00:01:25;98617.80;;;9.80
68911;BMP180;55953;51.650;-0.522;2023-03-24T00:03:54;98626.00;;;9.80
68911;BMP180;55953;51.650;-0.522;2023-03-24T00:06:22;98624.20;;;9.80
68911;BMP180;55953;51.650;-0.522;2023-03-24T00:08:50;98618.40;;;9.80
68911;BMP180;55953;51.650;-0.522;2023-03-24T00:11:19;98628.80;;;9.80
68911;BMP180;55953;51.650;-0.522;2023-03-24T00:13:48;98632.80;;;9.80
68911;BMP180;55953;51.650;-0.522;2023-03-24T00:16:18;98639.40;;;9.80
68911;BMP180;55953;51.650;-0.522;2023-03-24T00:18:47;98642.40;;;9.80
68911;BMP180;55953;51.650;-0.522;2023-03-24T00:21:24;98646.00;;;9.70
68911;BMP180;55953;51.650;-0.522;2023-03-24T00:23:54;98642.20;;;9.70
68911;BMP180;55953;51.650;-0.522;2023-03-24T00:26:25;98642.00;;;9.70
68911;BMP180;55953;51.650;-0.522;2023-03-24T00:28:54;98642.40;;;9.62
68911;BMP180;55953;51.650;-0.522;2023-03-24T00:31:23;98642.00;;;9.60
68911;BMP180;55953;51.650;-0.522;2023-03-24T00:33:52;98645.20;;;9.62
68911;BMP180;55953;51.650;-0.522;2023-03-24T00:36:24;98649.00;;;9.60
68911;BMP180;55953;51.650;-0.522;2023-03-24T00:38:55;98658.40;;;9.60
68911;BMP180;55953;51.650;-0.522;2023-03-24T00:41:23;98654.80;;;9.60
68911;BMP180;55953;51.650;-0.522;2023-03-24T00:43:57;98655.00;;;9.60
68911;BMP180;55953;51.650;-0.522;2023-03-24T00:46:26;98665.00;;;9.64
68911;BMP180;55953;51.650;-0.522;2023-03-24T00:48:59;98668.20;;;9.70
68911;BMP180;55953;51.650;-0.522;2023-03-24T00:51:38;98666.80;;;9.70
68911;BMP180;55953;51.650;-0.522;2023-03-24T00:54:10;98661.20;;;9.70
68911;BMP180;55953;51.650;-0.522;2023-03-24T00:56:39;98663.40;;;9.70
68911;BMP180;55953;51.650;-0.522;2023-03-24T00:59:08;98666.80;;;9.60
68911;BMP180;55953;51.650;-0.522;2023-03-24T01:01:38;98675.60;;;9.54
68911;BMP180;55953;51.650;-0.522;2023-03-24T01:04:08;98683.20;;;9.50
68911;BMP180;55953;51.650;-0.522;2023-03-24T01:06:38;98688.80;;;9.50
68911;BMP180;55953;51.650;-0.522;2023-03-24T01:09:07;98692.60;;;9.48
68911;BMP180;55953;51.650;-0.522;2023-03-24T01:11:39;98686.80;;;9.40
68911;BMP180;55953;51.650;-0.522;2023-03-24T01:14:10;98689.80;;;9.30
68911;BMP180;55953;51.650;-0.522;2023-03-24T01:16:39;98699.00;;;9.30
68911;BMP180;55953;51.650;-0.522;2023-03-24T01:19:08;98696.60;;;9.28
68911;BMP180;55953;51.650;-0.522;2023-03-24T01:21:39;98698.80;;;9.22
68911;BMP180;55953;51.650;-0.522;2023-03-24T01:24:09;98703.80;;;9.24
68911;BMP180;55953;51.650;-0.522;2023-03-24T01:26:37;98703.40;;;9.20
68911;BMP180;55953;51.650;-0.522;2023-03-24T01:29:05;98704.20;;;9.20
68911;BMP180;55953;51.650;-0.522;2023-03-24T01:31:34;98700.40;;;9.20
68911;BMP180;55953;51.650;-0.522;2023-03-24T01:34:04;98703.00;;;9.20
68911;BMP180;55953;51.650;-0.522;2023-03-24T01:36:32;98702.40;;;9.20
68911;BMP180;55953;51.650;-0.522;2023-03-24T01:39:00;98708.00;;;9.20
68911;BMP180;55953;51.650;-0.522;2023-03-24T01:41:36;98711.60;;;9.16
68911;BMP180;55953;51.650;-0.522;2023-03-24T01:46:55;98719.60;;;9.10
68911;BMP180;55953;51.650;-0.522;2023-03-24T01:49:30;98726.60;;;9.00
68911;BMP180;55953;51.650;-0.522;2023-03-24T01:52:02;98721.00;;;9.00
68911;BMP180;55953;51.650;-0.522;2023-03-24T01:54:43;98735.80;;;8.92
68911;BMP180;55953;51.650;-0.522;2023-03-24T01:57:32;98740.20;;;8.90
68911;BMP180;55953;51.650;-0.522;2023-03-24T02:00:09;98738.00;;;8.90
68911;BMP180;55953;51.650;-0.522;2023-03-24T02:02:53;98740.00;;;8.80
68911;BMP180;55953;51.650;-0.522;2023-03-24T02:05:30;98750.40;;;8.80
68911;BMP180;55953;51.650;-0.522;2023-03-24T02:10:54;98756.40;;;8.70
68911;BMP180;55953;51.650;-0.522;2023-03-24T02:13:24;98755.00;;;8.70
68911;BMP180;55953;51.650;-0.522;2023-03-24T02:19:16;98763.60;;;8.62
68911;BMP180;55953;51.650;-0.522;2023-03-24T02:25:39;98765.80;;;8.60
68911;BMP180;55953;51.650;-0.522;2023-03-24T02:46:34;98789.80;;;8.30
68911;BMP180;55953;51.650;-0.522;2023-03-24T02:51:56;98794.80;;;8.20
68911;BMP180;55953;51.650;-0.522;2023-03-24T02:54:59;98796.40;;;8.20
68911;BMP180;55953;51.650;-0.522;2023-03-24T02:57:35;98793.80;;;8.16
68911;BMP180;55953;51.650;-0.522;2023-03-24T03:00:13;98790.00;;;8.10
68911;BMP180;55953;51.650;-0.522;2023-03-24T03:03:40;98793.80;;;8.02
68911;BMP180;55953;51.650;-0.522;2023-03-24T03:06:19;98790.20;;;8.00
68911;BMP180;55953;51.650;-0.522;2023-03-24T03:08:50;98797.00;;;8.00
68911;BMP180;55953;51.650;-0.522;2023-03-24T03:11:18;98803.80;;;8.00
68911;BMP180;55953;51.650;-0.522;2023-03-24T03:13:57;98799.20;;;8.00
68911;BMP180;55953;51.650;-0.522;2023-03-24T03:16:34;98793.00;;;7.92
68911;BMP180;55953;51.650;-0.522;2023-03-24T03:19:26;98792.60;;;7.90
68911;BMP180;55953;51.650;-0.522;2023-03-24T03:21:57;98796.60;;;7.90
68911;BMP180;55953;51.650;-0.522;2023-03-24T03:24:36;98799.80;;;7.90
68911;BMP180;55953;51.650;-0.522;2023-03-24T03:27:13;98798.00;;;7.90
68911;BMP180;55953;51.650;-0.522;2023-03-24T03:29:50;98794.20;;;7.86
68911;BMP180;55953;51.650;-0.522;2023-03-24T03:32:32;98798.60;;;7.80
68911;BMP180;55953;51.650;-0.522;2023-03-24T03:35:15;98801.60;;;7.80
68911;BMP180;55953;51.650;-0.522;2023-03-24T03:38:31;98799.80;;;7.80
68911;BMP180;55953;51.650;-0.522;2023-03-24T03:41:04;98813.80;;;7.80
68911;BMP180;55953;51.650;-0.522;2023-03-24T03:43:35;98810.20;;;7.80
68911;BMP180;55953;51.650;-0.522;2023-03-24T03:46:04;98816.60;;;7.70
68911;BMP180;55953;51.650;-0.522;2023-03-24T03:48:38;98817.20;;;7.70
68911;BMP180;55953;51.650;-0.522;2023-03-24T03:51:08;98817.60;;;7.70
68911;BMP180;55953;51.650;-0.522;2023-03-24T03:53:52;98818.80;;;7.70
68911;BMP180;55953;51.650;-0.522;2023-03-24T03:56:26;98820.40;;;7.64
68911;BMP180;55953;51.650;-0.522;2023-03-24T03:59:28;98822.60;;;7.60
68911;BMP180;55953;51.650;-0.522;2023-03-24T04:02:29;98824.40;;;7.60
68911;BMP180;55953;51.650;-0.522;2023-03-24T04:08:47;98822.00;;;7.60
68911;BMP180;55953;51.650;-0.522;2023-03-24T04:15:21;98832.60;;;7.50
68911;BMP180;55953;51.650;-0.522;2023-03-24T04:20:50;98835.00;;;7.44
68911;BMP180;55953;51.650;-0.522;2023-03-24T04:34:43;98842.40;;;7.40
68911;BMP180;55953;51.650;-0.522;2023-03-24T04:37:30;98842.20;;;7.46
68911;BMP180;55953;51.650;-0.522;2023-03-24T04:40:14;98849.00;;;7.50
68911;BMP180;55953;51.650;-0.522;2023-03-24T04:42:51;98844.80;;;7.60
68911;BMP180;55953;51.650;-0.522;2023-03-24T04:45:23;98849.80;;;7.70
68911;BMP180;55953;51.650;-0.522;2023-03-24T04:48:11;98847.60;;;7.70
68911;BMP180;55953;51.650;-0.522;2023-03-24T04:50:56;98851.00;;;7.80
68911;BMP180;55953;51.650;-0.522;2023-03-24T04:53:34;98850.60;;;7.80
68911;BMP180;55953;51.650;-0.522;2023-03-24T04:56:26;98855.60;;;7.80
68911;BMP180;55953;51.650;-0.522;2023-03-24T04:59:02;98857.00;;;7.80
68911;BMP180;55953;51.650;-0.522;2023-03-24T05:01:31;98863.40;;;7.72
68911;BMP180;55953;51.650;-0.522;2023-03-24T05:04:23;98859.60;;;7.76
68911;BMP180;55953;51.650;-0.522;2023-03-24T05:06:51;98856.80;;;7.80
68911;BMP180;55953;51.650;-0.522;2023-03-24T05:09:24;98863.00;;;7.80
68911;BMP180;55953;51.650;-0.522;2023-03-24T05:11:52;98872.80;;;7.90
68911;BMP180;55953;51.650;-0.522;2023-03-24T05:14:21;98871.40;;;7.90
68911;BMP180;55953;51.650;-0.522;2023-03-24T05:16:49;98875.80;;;7.90
68911;BMP180;55953;51.650;-0.522;2023-03-24T05:19:18;98882.60;;;7.90
68911;BMP180;55953;51.650;-0.522;2023-03-24T05:21:46;98880.40;;;7.80
68911;BMP180;55953;51.650;-0.522;2023-03-24T05:24:15;98886.00;;;7.80
68911;BMP180;55953;51.650;-0.522;2023-03-24T05:26:43;98887.20;;;7.70
68911;BMP180;55953;51.650;-0.522;2023-03-24T05:29:15;98892.00;;;7.60
68911;BMP180;55953;51.650;-0.522;2023-03-24T05:31:43;98897.40;;;7.58
68911;BMP180;55953;51.650;-0.522;2023-03-24T05:34:21;98893.80;;;7.50
68911;BMP180;55953;51.650;-0.522;2023-03-24T05:36:58;98901.00;;;7.50
68911;BMP180;55953;51.650;-0.522;2023-03-24T05:39:25;98904.60;;;7.40
68911;BMP180;55953;51.650;-0.522;2023-03-24T05:42:02;98897.20;;;7.40
68911;BMP180;55953;51.650;-0.522;2023-03-24T05:44:30;98900.20;;;7.40
68911;BMP180;55953;51.650;-0.522;2023-03-24T05:47:04;98899.60;;;7.40
68911;BMP180;55953;51.650;-0.522;2023-03-24T05:49:32;98904.20;;;7.30
68911;BMP180;55953;51.650;-0.522;2023-03-24T05:52:00;98905.60;;;7.30
68911;BMP180;55953;51.650;-0.522;2023-03-24T05:54:29;98904.60;;;7.30
68911;BMP180;55953;51.650;-0.522;2023-03-24T05:57:15;98907.00;;;7.28
68911;BMP180;55953;51.650;-0.522;2023-03-24T06:00:07;98910.40;;;7.28
68911;BMP180;55953;51.650;-0.522;2023-03-24T06:02:53;98904.20;;;7.20
68911;BMP180;55953;51.650;-0.522;2023-03-24T06:05:40;98908.80;;;7.20
68911;BMP180;55953;51.650;-0.522;2023-03-24T06:08:08;98914.00;;;7.30
68911;BMP180;55953;51.650;-0.522;2023-03-24T06:10:37;98912.00;;;7.40
68911;BMP180;55953;51.650;-0.522;2023-03-24T06:13:05;98915.60;;;7.50
68911;BMP180;55953;51.650;-0.522;2023-03-24T06:15:36;98919.80;;;7.60
68911;BMP180;55953;51.650;-0.522;2023-03-24T06:18:27;98927.00;;;7.60
68911;BMP180;55953;51.650;-0.522;2023-03-24T06:20:56;98917.00;;;7.60
68911;BMP180;55953;51.650;-0.522;2023-03-24T06:23:28;98920.60;;;7.64
68911;BMP180;55953;51.650;-0.522;2023-03-24T06:26:10;98925.40;;;7.70
68911;BMP180;55953;51.650;-0.522;2023-03-24T06:28:49;98922.60;;;7.70
68911;BMP180;55953;51.650;-0.522;2023-03-24T06:31:20;98926.60;;;7.80
68911;BMP180;55953;51.650;-0.522;2023-03-24T06:33:51;98921.60;;;7.90
68911;BMP180;55953;51.650;-0.522;2023-03-24T06:36:19;98920.20;;;8.00
68911;BMP180;55953;51.650;-0.522;2023-03-24T06:38:47;98919.20;;;8.10
68911;BMP180;55953;51.650;-0.522;2023-03-24T06:41:19;98920.20;;;8.20
68911;BMP180;55953;51.650;-0.522;2023-03-24T06:43:49;98923.00;;;8.30
68911;BMP180;55953;51.650;-0.522;2023-03-24T06:46:17;98921.60;;;8.40
68911;BMP180;55953;51.650;-0.522;2023-03-24T06:48:45;98926.40;;;8.48
68911;BMP180;55953;51.650;-0.522;2023-03-24T06:51:14;98926.20;;;8.50
68911;BMP180;55953;51.650;-0.522;2023-03-24T06:53:42;98930.80;;;8.60
68911;BMP180;55953;51.650;-0.522;2023-03-24T06:56:13;98928.60;;;8.70
68911;BMP180;55953;51.650;-0.522;2023-03-24T06:58:50;98940.60;;;8.80
68911;BMP180;55953;51.650;-0.522;2023-03-24T07:01:27;98944.80;;;8.88
68911;BMP180;55953;51.650;-0.522;2023-03-24T07:04:05;98943.00;;;8.90
68911;BMP180;55953;51.650;-0.522;2023-03-24T07:06:39;98941.40;;;9.00
68911;BMP180;55953;51.650;-0.522;2023-03-24T07:09:29;98947.00;;;9.10
68911;BMP180;55953;51.650;-0.522;2023-03-24T07:11:57;98943.00;;;9.16
68911;BMP180;55953;51.650;-0.522;2023-03-24T07:14:25;98941.20;;;9.24
68911;BMP180;55953;51.650;-0.522;2023-03-24T07:16:54;98942.60;;;9.34
68911;BMP180;55953;51.650;-0.522;2023-03-24T07:19:25;98947.80;;;9.50
68911;BMP180;55953;51.650;-0.522;2023-03-24T07:22:16;98951.00;;;9.60
68911;BMP180;55953;51.650;-0.522;2023-03-24T07:25:04;98953.20;;;9.70
68911;BMP180;55953;51.650;-0.522;2023-03-24T07:27:56;98948.60;;;9.80
68911;BMP180;55953;51.650;-0.522;2023-03-24T07:30:24;98949.80;;;9.88
68911;BMP180;55953;51.650;-0.522;2023-03-24T07:33:07;98946.80;;;9.98
68911;BMP180;55953;51.650;-0.522;2023-03-24T07:35:41;98941.40;;;10.02
68911;BMP180;55953;51.650;-0.522;2023-03-24T07:38:10;98941.00;;;10.10
68911;BMP180;55953;51.650;-0.522;2023-03-24T07:40:38;98942.40;;;10.22
68911;BMP180;55953;51.650;-0.522;2023-03-24T07:43:06;98944.60;;;10.30
68911;BMP180;55953;51.650;-0.522;2023-03-24T07:45:44;98947.20;;;10.32
68911;BMP180;55953;51.650;-0.522;2023-03-24T07:48:13;98942.80;;;10.40
68911;BMP180;55953;51.650;-0.522;2023-03-24T07:50:41;98943.80;;;10.42
68911;BMP180;55953;51.650;-0.522;2023-03-24T07:53:28;98945.60;;;10.70
68911;BMP180;55953;51.650;-0.522;2023-03-24T07:55:56;98948.00;;;10.90
68911;BMP180;55953;51.650;-0.522;2023-03-24T07:58:24;98950.00;;;10.80
68911;BMP180;55953;51.650;-0.522;2023-03-24T08:01:14;98952.40;;;10.80
68911;BMP180;55953;51.650;-0.522;2023-03-24T08:03:44;98954.80;;;10.90
68911;BMP180;55953;51.650;-0.522;2023-03-24T08:06:12;98952.00;;;10.90
68911;BMP180;55953;51.650;-0.522;2023-03-24T08:08:44;98962.40;;;11.00
68911;BMP180;55953;51.650;-0.522;2023-03-24T08:11:12;98960.40;;;11.00
68911;BMP180;55953;51.650;-0.522;2023-03-24T08:13:40;98957.60;;;11.10
68911;BMP180;55953;51.650;-0.522;2023-03-24T08:16:08;98956.20;;;11.20
68911;BMP180;55953;51.650;-0.522;2023-03-24T08:18:37;98948.60;;;11.20
68911;BMP180;55953;51.650;-0.522;2023-03-24T08:21:05;98958.00;;;11.30
68911;BMP180;55953;51.650;-0.522;2023-03-24T08:23:33;98953.60;;;11.30
68911;BMP180;55953;51.650;-0.522;2023-03-24T08:26:03;98959.60;;;11.40
68911;BMP180;55953;51.650;-0.522;2023-03-24T08:28:32;98958.60;;;11.50
68911;BMP180;55953;51.650;-0.522;2023-03-24T08:31:00;98948.80;;;11.60
68911;BMP180;55953;51.650;-0.522;2023-03-24T08:33:28;98956.60;;;11.60
68911;BMP180;55953;51.650;-0.522;2023-03-24T08:35:56;98952.80;;;11.60
68911;BMP180;55953;51.650;-0.522;2023-03-24T08:38:25;98955.60;;;11.60
68911;BMP180;55953;51.650;-0.522;2023-03-24T08:41:02;98952.20;;;11.70
68911;BMP180;55953;51.650;-0.522;2023-03-24T08:43:35;98957.60;;;11.70
68911;BMP180;55953;51.650;-0.522;2023-03-24T08:46:07;98960.00;;;11.74
68911;BMP180;55953;51.650;-0.522;2023-03-24T08:48:39;98960.60;;;11.80
68911;BMP180;55953;51.650;-0.522;2023-03-24T08:51:16;98956.20;;;11.90
68911;BMP180;55953;51.650;-0.522;2023-03-24T08:53:44;98953.80;;;12.10
68911;BMP180;55953;51.650;-0.522;2023-03-24T08:56:12;98960.20;;;12.34
68911;BMP180;55953;51.650;-0.522;2023-03-24T08:58:40;98960.60;;;12.50
68911;BMP180;55953;51.650;-0.522;2023-03-24T09:01:08;98959.60;;;12.70
68911;BMP180;55953;51.650;-0.522;2023-03-24T09:03:36;98960.80;;;12.70
68911;BMP180;55953;51.650;-0.522;2023-03-24T09:06:07;98966.60;;;12.80
68911;BMP180;55953;51.650;-0.522;2023-03-24T09:08:35;98967.60;;;12.90
68911;BMP180;55953;51.650;-0.522;2023-03-24T09:11:04;98966.40;;;13.00
68911;BMP180;55953;51.650;-0.522;2023-03-24T09:13:32;98962.20;;;13.10
68911;BMP180;55953;51.650;-0.522;2023-03-24T09:16:02;98963.20;;;13.20
68911;BMP180;55953;51.650;-0.522;2023-03-24T09:18:30;98963.00;;;13.20
68911;BMP180;55953;51.650;-0.522;2023-03-24T09:20:58;98963.80;;;13.30
68911;BMP180;55953;51.650;-0.522;2023-03-24T09:23:26;98964.00;;;13.30
68911;BMP180;55953;51.650;-0.522;2023-03-24T09:25:56;98961.60;;;13.30
68911;BMP180;55953;51.650;-0.522;2023-03-24T09:28:25;98966.40;;;13.20
68911;BMP180;55953;51.650;-0.522;2023-03-24T09:30:58;98958.20;;;13.20
68911;BMP180;55953;51.650;-0.522;2023-03-24T09:33:27;98960.80;;;13.20
68911;BMP180;55953;51.650;-0.522;2023-03-24T09:35:59;98961.20;;;13.20
68911;BMP180;55953;51.650;-0.522;2023-03-24T09:38:28;98955.60;;;13.30
68911;BMP180;55953;51.650;-0.522;2023-03-24T09:40:59;98954.80;;;13.50
68911;BMP180;55953;51.650;-0.522;2023-03-24T09:43:40;98952.60;;;13.50
68911;BMP180;55953;51.650;-0.522;2023-03-24T09:46:21;98953.60;;;13.50
68911;BMP180;55953;51.650;-0.522;2023-03-24T09:48:55;98957.80;;;13.66
68911;BMP180;55953;51.650;-0.522;2023-03-24T09:51:38;98959.20;;;13.70
68911;BMP180;55953;51.650;-0.522;2023-03-24T09:54:25;98956.20;;;13.60
68911;BMP180;55953;51.650;-0.522;2023-03-24T09:56:56;98952.40;;;13.70
68911;BMP180;55953;51.650;-0.522;2023-03-24T09:59:33;98965.00;;;13.60
68911;BMP180;55953;51.650;-0.522;2023-03-24T10:02:15;98962.40;;;13.60
68911;BMP180;55953;51.650;-0.522;2023-03-24T10:04:46;98955.20;;;13.70
68911;BMP180;55953;51.650;-0.522;2023-03-24T10:10:27;98963.40;;;13.60
68911;BMP180;55953;51.650;-0.522;2023-03-24T10:13:17;98967.40;;;13.60
68911;BMP180;55953;51.650;-0.522;2023-03-24T10:16:01;98961.20;;;13.60
68911;BMP180;55953;51.650;-0.522;2023-03-24T10:21:26;98967.80;;;13.66
68911;BMP180;55953;51.650;-0.522;2023-03-24T10:24:22;98966.80;;;13.60
68911;BMP180;55953;51.650;-0.522;2023-03-24T10:27:21;98968.00;;;13.50
68911;BMP180;55953;51.650;-0.522;2023-03-24T10:29:59;98966.00;;;13.42
68911;BMP180;55953;51.650;-0.522;2023-03-24T10:32:32;98958.00;;;13.40
68911;BMP180;55953;51.650;-0.522;2023-03-24T10:35:05;98955.00;;;13.20
68911;BMP180;55953;51.650;-0.522;2023-03-24T10:37:37;98952.80;;;13.34
68911;BMP180;55953;51.650;-0.522;2023-03-24T10:40:18;98956.20;;;13.50
68911;BMP180;55953;51.650;-0.522;2023-03-24T10:42:48;98956.20;;;13.62
68911;BMP180;55953;51.650;-0.522;2023-03-24T10:45:40;98957.60;;;13.50
68911;BMP180;55953;51.650;-0.522;2023-03-24T10:48:12;98969.40;;;13.20
68911;BMP180;55953;51.650;-0.522;2023-03-24T10:50:44;98977.60;;;12.94
68911;BMP180;55953;51.650;-0.522;2023-03-24T10:53:19;98978.00;;;12.70
68911;BMP180;55953;51.650;-0.522;2023-03-24T10:55:50;98974.60;;;12.40
68911;BMP180;55953;51.650;-0.522;2023-03-24T10:58:35;98980.20;;;12.38
68911;BMP180;55953;51.650;-0.522;2023-03-24T11:01:23;98974.60;;;12.40
68911;BMP180;55953;51.650;-0.522;2023-03-24T11:04:04;98963.00;;;12.60
68911;BMP180;55953;51.650;-0.522;2023-03-24T11:06:33;98958.40;;;12.70
68911;BMP180;55953;51.650;-0.522;2023-03-24T11:09:20;98955.40;;;12.80
68911;BMP180;55953;51.650;-0.522;2023-03-24T11:11:49;98949.80;;;12.80
68911;BMP180;55953;51.650;-0.522;2023-03-24T11:14:26;98945.20;;;12.72
68911;BMP180;55953;51.650;-0.522;2023-03-24T11:17:14;98948.60;;;12.80
68911;BMP180;55953;51.650;-0.522;2023-03-24T11:19:54;98944.60;;;12.98
68911;BMP180;55953;51.650;-0.522;2023-03-24T11:22:24;98929.20;;;13.10
68911;BMP180;55953;51.650;-0.522;2023-03-24T11:24:55;98941.60;;;13.20
68911;BMP180;55953;51.650;-0.522;2023-03-24T11:27:23;98932.40;;;13.40
68911;BMP180;55953;51.650;-0.522;2023-03-24T11:29:53;98940.20;;;13.60
68911;BMP180;55953;51.650;-0.522;2023-03-24T11:32:26;98931.80;;;13.70
68911;BMP180;55953;51.650;-0.522;2023-03-24T11:35:04;98930.60;;;13.84
68911;BMP180;55953;51.650;-0.522;2023-03-24T11:37:35;98920.40;;;14.10
68911;BMP180;55953;51.650;-0.522;2023-03-24T11:43:00;98905.40;;;14.50
68911;BMP180;55953;51.650;-0.522;2023-03-24T11:45:39;98922.00;;;14.78
68911;BMP180;55953;51.650;-0.522;2023-03-24T11:48:41;98924.80;;;14.70
68911;BMP180;55953;51.650;-0.522;2023-03-24T11:51:27;98915.80;;;14.74
68911;BMP180;55953;51.650;-0.522;2023-03-24T11:53:59;98914.80;;;14.80
68911;BMP180;55953;51.650;-0.522;2023-03-24T11:56:40;98920.80;;;14.90
68911;BMP180;55953;51.650;-0.522;2023-03-24T12:05:05;98931.60;;;14.18
68911;BMP180;55953;51.650;-0.522;2023-03-24T12:07:53;98958.80;;;13.42
68911;BMP180;55953;51.650;-0.522;2023-03-24T12:10:58;98948.20;;;12.82
68911;BMP180;55953;51.650;-0.522;2023-03-24T12:13:41;98956.60;;;12.38
68911;BMP180;55953;51.650;-0.522;2023-03-24T12:25:44;98990.60;;;11.28
68911;BMP180;55953;51.650;-0.522;2023-03-24T12:28:55;99013.80;;;11.04
68911;BMP180;55953;51.650;-0.522;2023-03-24T12:34:54;98991.00;;;10.70
68911;BMP180;55953;51.650;-0.522;2023-03-24T12:43:49;98962.20;;;11.22
68911;BMP180;55953;51.650;-0.522;2023-03-24T12:55:30;98937.60;;;12.00
68911;BMP180;55953;51.650;-0.522;2023-03-24T13:00:59;98938.00;;;12.20
68911;BMP180;55953;51.650;-0.522;2023-03-24T13:03:39;98933.00;;;12.30
68911;BMP180;55953;51.650;-0.522;2023-03-24T13:06:33;98933.80;;;12.20
68911;BMP180;55953;51.650;-0.522;2023-03-24T13:12:18;98934.20;;;11.90
68911;BMP180;55953;51.650;-0.522;2023-03-24T13:17:44;98932.20;;;12.00
68911;BMP180;55953;51.650;-0.522;2023-03-24T13:23:33;98927.20;;;12.06
68911;BMP180;55953;51.650;-0.522;2023-03-24T13:31:37;98913.80;;;12.00
68911;BMP180;55953;51.650;-0.522;2023-03-24T13:34:36;98915.40;;;11.84
68911;BMP180;55953;51.650;-0.522;2023-03-24T13:37:28;98908.60;;;11.80
68911;BMP180;55953;51.650;-0.522;2023-03-24T13:40:09;98902.80;;;11.70
68911;BMP180;55953;51.650;-0.522;2023-03-24T13:42:55;98910.00;;;11.70
68911;BMP180;55953;51.650;-0.522;2023-03-24T13:45:47;98908.40;;;11.70
68911;BMP180;55953;51.650;-0.522;2023-03-24T13:48:36;98911.00;;;11.80
68911;BMP180;55953;51.650;-0.522;2023-03-24T13:51:30;98913.00;;;11.82
68911;BMP180;55953;51.650;-0.522;2023-03-24T13:56:40;98910.60;;;11.60
68911;BMP180;55953;51.650;-0.522;2023-03-24T14:10:39;98910.00;;;11.40
68911;BMP180;55953;51.650;-0.522;2023-03-24T14:15:55;98887.00;;;11.70
68911;BMP180;55953;51.650;-0.522;2023-03-24T14:26:01;98871.40;;;12.10
68911;BMP180;55953;51.650;-0.522;2023-03-24T14:28:44;98880.60;;;12.10
68911;BMP180;55953;51.650;-0.522;2023-03-24T14:41:41;98894.60;;;11.70
68911;BMP180;55953;51.650;-0.522;2023-03-24T14:44:10;98897.60;;;11.44
68911;BMP180;55953;51.650;-0.522;2023-03-24T14:46:41;98903.60;;;11.20
68911;BMP180;55953;51.650;-0.522;2023-03-24T14:49:26;98898.60;;;11.00
68911;BMP180;55953;51.650;-0.522;2023-03-24T14:52:14;98906.20;;;10.80
68911;BMP180;55953;51.650;-0.522;2023-03-24T14:55:03;98900.40;;;10.66
68911;BMP180;55953;51.650;-0.522;2023-03-24T14:58:03;98910.00;;;10.48
68911;BMP180;55953;51.650;-0.522;2023-03-24T15:00:46;98914.00;;;10.30
68911;BMP180;55953;51.650;-0.522;2023-03-24T15:06:19;98903.40;;;10.00
68911;BMP180;55953;51.650;-0.522;2023-03-24T15:08:57;98899.40;;;9.92
68911;BMP180;55953;51.650;-0.522;2023-03-24T15:11:36;98894.00;;;9.88
68911;BMP180;55953;51.650;-0.522;2023-03-24T15:14:24;98882.80;;;9.80
68911;BMP180;55953;51.650;-0.522;2023-03-24T15:17:04;98887.20;;;9.70
68911;BMP180;55953;51.650;-0.522;2023-03-24T15:19:32;98875.20;;;9.68
68911;BMP180;55953;51.650;-0.522;2023-03-24T15:22:05;98860.80;;;9.60
68911;BMP180;55953;51.650;-0.522;2023-03-24T15:24:37;98868.00;;;9.60
68911;BMP180;55953;51.650;-0.522;2023-03-24T15:29:36;98870.80;;;9.90
68911;BMP180;55953;51.650;-0.522;2023-03-24T15:32:06;98870.00;;;10.00
68911;BMP180;55953;51.650;-0.522;2023-03-24T15:34:47;98870.20;;;10.10
68911;BMP180;55953;51.650;-0.522;2023-03-24T15:37:35;98873.80;;;10.20
68911;BMP180;55953;51.650;-0.522;2023-03-24T15:42:56;98863.80;;;10.30
68911;BMP180;55953;51.650;-0.522;2023-03-24T15:45:28;98857.20;;;10.40
68911;BMP180;55953;51.650;-0.522;2023-03-24T15:48:05;98854.20;;;10.60
68911;BMP180;55953;51.650;-0.522;2023-03-24T15:50:40;98855.60;;;10.70
68911;BMP180;55953;51.650;-0.522;2023-03-24T15:55:42;98850.60;;;10.70
68911;BMP180;55953;51.650;-0.522;2023-03-24T15:58:28;98846.20;;;10.64
68911;BMP180;55953;51.650;-0.522;2023-03-24T16:01:01;98850.80;;;10.52
68911;BMP180;55953;51.650;-0.522;2023-03-24T16:03:33;98859.40;;;10.50
68911;BMP180;55953;51.650;-0.522;2023-03-24T16:06:01;98858.40;;;10.40
68911;BMP180;55953;51.650;-0.522;2023-03-24T16:08:35;98859.60;;;10.40
68911;BMP180;55953;51.650;-0.522;2023-03-24T16:11:11;98857.20;;;10.40
68911;BMP180;55953;51.650;-0.522;2023-03-24T16:13:45;98862.20;;;10.30
68911;BMP180;55953;51.650;-0.522;2023-03-24T16:18:46;98852.60;;;10.10
68911;BMP180;55953;51.650;-0.522;2023-03-24T16:21:25;98850.60;;;10.10
68911;BMP180;55953;51.650;-0.522;2023-03-24T16:23:56;98864.40;;;10.10
68911;BMP180;55953;51.650;-0.522;2023-03-24T16:26:31;98863.20;;;10.00
68911;BMP180;55953;51.650;-0.522;2023-03-24T16:29:14;98862.40;;;10.00
68911;BMP180;55953;51.650;-0.522;2023-03-24T16:31:46;98856.40;;;9.90
68911;BMP180;55953;51.650;-0.522;2023-03-24T16:34:20;98855.40;;;9.80
68911;BMP180;55953;51.650;-0.522;2023-03-24T16:36:51;98873.80;;;9.70
68911;BMP180;55953;51.650;-0.522;2023-03-24T16:39:23;98883.60;;;9.64
68911;BMP180;55953;51.650;-0.522;2023-03-24T16:41:51;98876.20;;;9.60
68911;BMP180;55953;51.650;-0.522;2023-03-24T16:44:20;98876.60;;;9.50
68911;BMP180;55953;51.650;-0.522;2023-03-24T16:46:51;98870.20;;;9.40
68911;BMP180;55953;51.650;-0.522;2023-03-24T16:49:22;98869.00;;;9.40
68911;BMP180;55953;51.650;-0.522;2023-03-24T16:51:51;98862.60;;;9.40
68911;BMP180;55953;51.650;-0.522;2023-03-24T16:54:20;98850.60;;;9.42
68911;BMP180;55953;51.650;-0.522;2023-03-24T16:56:48;98852.80;;;9.50
68911;BMP180;55953;51.650;-0.522;2023-03-24T16:59:17;98849.20;;;9.44
68911;BMP180;55953;51.650;-0.522;2023-03-24T17:01:46;98865.60;;;9.40
68911;BMP180;55953;51.650;-0.522;2023-03-24T17:04:18;98865.80;;;9.40
68911;BMP180;55953;51.650;-0.522;2023-03-24T17:06:50;98877.00;;;9.40
68911;BMP180;55953;51.650;-0.522;2023-03-24T17:09:21;98871.80;;;9.32
68911;BMP180;55953;51.650;-0.522;2023-03-24T17:11:53;98877.40;;;9.30
68911;BMP180;55953;51.650;-0.522;2023-03-24T17:14:22;98882.20;;;9.30
68911;BMP180;55953;51.650;-0.522;2023-03-24T17:16:50;98886.40;;;9.26
68911;BMP180;55953;51.650;-0.522;2023-03-24T17:19:22;98884.00;;;9.22
68911;BMP180;55953;51.650;-0.522;2023-03-24T17:22:03;98877.80;;;9.20
68911;BMP180;55953;51.650;-0.522;2023-03-24T17:24:34;98869.20;;;9.20
68911;BMP180;55953;51.650;-0.522;2023-03-24T17:27:12;98869.20;;;9.30
68911;BMP180;55953;51.650;-0.522;2023-03-24T17:29:41;98871.40;;;9.40
68911;BMP180;55953;51.650;-0.522;2023-03-24T17:32:09;98881.60;;;9.50
68911;BMP180;55953;51.650;-0.522;2023-03-24T17:34:41;98875.00;;;9.60